Time;durP1;ratioP1;P1;durP2;ratioP2;P2;SDS_P1;SDS_P2;PMS_P1;PMS_P2;Temp;Humidity;BMP_temperature;BMP_pressure;BME280_temperature;BME280_humidity;BME280_pressure;Samples;Min_cycle;Max_cycle;Signal;HPM_P1;HPM_P2
2023/07/31 00:02:22;;;;;;;3.97;1.70;;;;;;;21.97;47.53;101117.19;16116355;19;129327;-62
2023/07/31 00:07:44;;;;;;;3.22;1.83;;;;;;;21.95;47.46;101097.09;16118020;19;129461;-62
2023/07/31 00:13:06;;;;;;;2.22;1.50;;;;;;;21.95;47.60;101097.09;16116021;19;131122;-61
2023/07/31 00:18:28;;;;;;;3.08;1.60;;;;;;;21.94;47.55;101096.28;16116440;19;130173;-61
2023/07/31 00:23:50;;;;;;;3.25;1.63;;;;;;;21.94;47.42;101098.22;16114762;19;129707;-61
2023/07/31 00:29:13;;;;;;;3.45;1.52;;;;;;;21.94;47.26;101084.28;16113615;19;129763;-60
2023/07/31 00:34:35;;;;;;;4.32;1.85;;;;;;;21.92;47.65;101084.56;16116995;19;131017;-61
2023/07/31 00:39:57;;;;;;;3.47;1.60;;;;;;;21.92;47.55;101078.13;16116057;19;130044;-61
2023/07/31 00:45:19;;;;;;;3.60;1.33;;;;;;;21.92;47.45;101067.00;16113347;19;129569;-61
2023/07/31 00:50:41;;;;;;;4.07;1.80;;;;;;;21.92;47.21;101078.13;16109467;19;129993;-61
2023/07/31 00:56:03;;;;;;;3.53;1.58;;;;;;;21.91;47.43;101059.78;16113593;19;129872;-61
2023/07/31 01:01:25;;;;;;;2.42;1.40;;;;;;;21.91;47.18;101054.19;16113787;19;129895;-60
2023/07/31 01:06:52;;;;;;;5.13;1.63;;;;;;;21.90;47.39;101052.50;16103946;19;130456;-61
2023/07/31 01:12:16;;;;;;;3.95;1.30;;;;;;;21.89;47.34;101062.81;16111529;19;129633;-60
2023/07/31 01:17:39;;;;;;;3.58;1.33;;;;;;;21.90;47.47;101058.09;16115058;19;131801;-61
2023/07/31 01:23:22;;;;;;;4.13;1.45;;;;;;;21.90;47.30;101052.50;16113381;19;129141;-61
2023/07/31 01:28:50;;;;;;;4.68;1.35;;;;;;;21.88;47.24;101060.28;16115240;19;131408;-62
2023/07/31 01:34:13;;;;;;;3.78;1.40;;;;;;;21.87;47.04;101058.59;16111472;19;130925;-61
2023/07/31 01:39:35;;;;;;;2.70;1.48;;;;;;;21.86;47.46;101051.34;16116238;19;131461;-61
2023/07/31 01:44:57;;;;;;;4.03;1.52;;;;;;;21.86;47.32;101056.94;16109484;19;130258;-61
2023/07/31 01:50:19;;;;;;;2.67;1.85;;;;;;;21.85;47.52;101044.94;16113554;19;129790;-61
2023/07/31 01:55:41;;;;;;;4.47;1.60;;;;;;;21.85;47.42;101032.97;16113548;19;130016;-62
2023/07/31 02:01:03;;;;;;;3.47;1.45;;;;;;;21.84;47.54;101034.94;16110253;19;130397;-61
2023/07/31 02:06:25;;;;;;;3.60;1.50;;;;;;;21.83;47.29;101020.16;16111054;19;130412;-61
2023/07/31 02:11:47;;;;;;;5.85;1.90;;;;;;;21.83;47.30;101009.00;16109310;19;129542;-62
2023/07/31 02:17:09;;;;;;;4.90;1.90;;;;;;;21.85;47.54;101013.47;16110207;19;129544;-61
2023/07/31 02:22:31;;;;;;;3.28;1.50;;;;;;;21.82;46.96;100996.19;16109490;19;129471;-61
2023/07/31 02:27:52;;;;;;;6.40;1.88;;;;;;;21.83;47.23;100986.72;16106201;19;131209;-61
2023/07/31 02:33:16;;;;;;;2.92;1.70;;;;;;;21.81;47.31;100976.97;16108655;19;129987;-61
2023/07/31 02:38:38;;;;;;;5.25;1.85;;;;;;;21.82;47.34;100979.47;16106363;19;130025;-62
2023/07/31 02:44:00;;;;;;;4.47;2.05;;;;;;;21.81;46.93;100972.22;16110634;19;130313;-61
2023/07/31 02:49:22;;;;;;;4.90;2.33;;;;;;;21.81;47.07;100955.50;16122546;19;130263;-62
2023/07/31 02:54:44;;;;;;;3.35;1.90;;;;;;;21.81;47.12;100958.28;16128129;19;130082;-62
2023/07/31 03:00:06;;;;;;;3.97;2.10;;;;;;;21.80;47.20;100941.88;16124090;19;129571;-62
2023/07/31 03:05:28;;;;;;;4.53;2.03;;;;;;;21.79;47.38;100929.88;16122096;19;131076;-64
2023/07/31 03:10:50;;;;;;;5.65;2.10;;;;;;;21.79;47.45;100932.66;16124403;19;131009;-63
2023/07/31 03:16:12;;;;;;;3.47;1.80;;;;;;;21.79;47.43;100934.63;16121151;19;130885;-63
2023/07/31 03:21:34;;;;;;;5.03;2.25;;;;;;;21.78;47.28;100933.78;16119112;19;134019;-63
2023/07/31 03:26:56;;;;;;;6.25;2.38;;;;;;;21.78;47.02;100935.72;16114347;19;131444;-60
2023/07/31 03:32:18;;;;;;;4.97;2.00;;;;;;;21.78;47.40;100933.78;16116691;19;132404;-61
2023/07/31 03:37:40;;;;;;;4.00;1.80;;;;;;;21.78;47.38;100927.38;16113492;19;129780;-61
2023/07/31 03:43:02;;;;;;;4.60;2.08;;;;;;;21.77;47.14;100926.53;16118505;19;130038;-62
2023/07/31 03:48:24;;;;;;;5.97;2.20;;;;;;;21.76;46.91;100910.94;16119573;19;130572;-62
2023/07/31 03:53:46;;;;;;;8.23;2.47;;;;;;;21.76;47.49;100902.59;16116190;19;129846;-62
2023/07/31 03:59:08;;;;;;;7.95;2.30;;;;;;;21.76;47.10;100897.00;16119638;19;130274;-61
2023/07/31 04:04:30;;;;;;;4.40;2.40;;;;;;;21.76;47.24;100887.81;16119152;19;129752;-61
2023/07/31 04:09:57;;;;;;;7.03;2.20;;;;;;;21.75;47.43;100892.56;16119186;19;130892;-62
2023/07/31 04:15:19;;;;;;;8.23;2.25;;;;;;;21.75;47.07;100880.56;16116404;19;130034;-62
2023/07/31 04:20:41;;;;;;;5.90;2.78;;;;;;;21.74;47.17;100860.25;16125592;19;129328;-62
2023/07/31 04:26:03;;;;;;;4.95;2.35;;;;;;;21.74;47.36;100859.38;16122593;19;130666;-62
2023/07/31 04:31:25;;;;;;;6.28;2.28;;;;;;;21.73;46.89;100858.56;16119813;19;130049;-62
2023/07/31 04:36:47;;;;;;;6.78;2.75;;;;;;;21.74;47.31;100853.81;16121301;19;130520;-61
2023/07/31 04:42:09;;;;;;;6.07;1.88;;;;;;;21.73;47.33;100858.56;16118144;19;130085;-58
2023/07/31 04:47:30;;;;;;;5.03;2.25;;;;;;;21.72;47.26;100854.09;16119988;19;130615;-62
2023/07/31 04:52:52;;;;;;;7.45;2.60;;;;;;;21.73;47.59;100847.44;16120422;19;129409;-62
2023/07/31 04:58:14;;;;;;;7.00;3.00;;;;;;;21.71;47.28;100832.94;16122986;19;129786;-62
2023/07/31 05:03:36;;;;;;;5.85;2.60;;;;;;;21.71;47.46;100844.06;16120075;19;130514;-62
2023/07/31 05:08:59;;;;;;;4.53;2.65;;;;;;;21.72;47.09;100840.19;16123250;19;130538;-62
2023/07/31 05:14:20;;;;;;;5.03;2.03;;;;;;;21.70;47.40;100831.25;16114738;19;130368;-62
2023/07/31 05:19:42;;;;;;;8.00;2.20;;;;;;;21.70;47.63;100820.13;16112627;19;130820;-59
2023/07/31 05:25:05;;;;;;;5.78;2.42;;;;;;;21.75;47.36;100827.66;16113275;19;130206;-60
2023/07/31 05:30:29;;;;;;;8.38;2.20;;;;;;;21.76;47.06;100813.47;16112574;19;129049;-60
2023/07/31 05:35:51;;;;;;;4.93;2.58;;;;;;;21.75;47.36;100811.81;16113317;19;130576;-61
2023/07/31 05:41:13;;;;;;;7.78;2.08;;;;;;;21.75;47.57;100811.81;16111986;19;135357;-61
2023/07/31 05:46:35;;;;;;;6.82;2.58;;;;;;;21.73;47.65;100808.44;16112218;19;129513;-61
2023/07/31 05:51:58;;;;;;;10.75;2.50;;;;;;;21.73;47.39;100808.44;16111459;19;129381;-59
2023/07/31 05:57:20;;;;;;;4.32;2.10;;;;;;;21.73;47.81;100808.44;16110256;19;131062;-65
2023/07/31 06:02:42;;;;;;;7.55;2.47;;;;;;;21.73;47.39;100800.09;16112010;19;130296;-64
2023/07/31 06:08:04;;;;;;;7.20;2.15;;;;;;;21.72;47.36;100794.81;16106959;19;130780;-66
2023/07/31 06:13:26;;;;;;;10.50;2.47;;;;;;;21.72;47.67;100801.19;16099504;19;130763;-60
2023/07/31 06:18:48;;;;;;;5.97;2.20;;;;;;;21.70;47.80;100808.97;16106059;19;130032;-60
2023/07/31 06:24:12;;;;;;;7.38;2.13;;;;;;;21.71;47.98;100795.91;16126630;19;129604;-59
2023/07/31 06:29:37;;;;;;;12.40;2.20;;;;;;;21.71;48.08;100790.34;16124139;19;130455;-59
2023/07/31 06:34:59;;;;;;;14.82;2.72;;;;;;;21.70;47.67;100785.88;16122012;19;130083;-58
2023/07/31 06:40:22;;;;;;;19.25;2.72;;;;;;;21.70;47.84;100783.09;16123769;19;131246;-58
2023/07/31 06:45:44;;;;;;;7.00;2.33;;;;;;;21.70;48.09;100777.53;16125984;19;130346;-58
2023/07/31 06:51:06;;;;;;;12.50;2.50;;;;;;;21.69;47.84;100773.88;16123302;19;129452;-58
2023/07/31 06:56:29;;;;;;;9.82;2.53;;;;;;;21.70;48.08;100771.97;16126574;19;130250;-58
2023/07/31 07:01:51;;;;;;;21.08;3.10;;;;;;;21.70;48.14;100764.44;16125393;19;129487;-58
2023/07/31 07:07:13;;;;;;;13.93;2.60;;;;;;;21.70;47.93;100758.88;16122890;19;130448;-59
2023/07/31 07:12:36;;;;;;;11.90;2.38;;;;;;;21.71;47.89;100759.72;16126001;19;129859;-58
2023/07/31 07:17:58;;;;;;;8.30;2.20;;;;;;;21.70;48.23;100758.88;16125452;19;129509;-57
2023/07/31 07:23:20;;;;;;;11.38;2.15;;;;;;;21.72;48.07;100762.22;16124829;19;130081;-58
2023/07/31 07:28:42;;;;;;;9.25;2.30;;;;;;;21.71;47.96;100760.53;16124923;19;129521;-58
2023/07/31 07:34:04;;;;;;;9.77;2.30;;;;;;;21.70;48.10;100756.06;16120930;19;129699;-58
2023/07/31 07:39:26;;;;;;;6.70;2.03;;;;;;;21.71;47.88;100763.31;16122771;19;130352;-58
2023/07/31 07:44:48;;;;;;;8.13;2.53;;;;;;;21.71;48.28;100766.09;16122438;19;131797;-58
2023/07/31 07:50:10;;;;;;;7.88;2.42;;;;;;;21.70;48.31;100772.78;16123291;19;130058;-58
2023/07/31 07:55:32;;;;;;;7.82;2.60;;;;;;;21.71;48.10;100768.06;16124692;19;129660;-58
2023/07/31 08:00:54;;;;;;;12.60;2.33;;;;;;;21.70;48.12;100763.59;16120121;19;130331;-58
2023/07/31 08:06:16;;;;;;;6.68;1.90;;;;;;;21.70;47.94;100753.28;16124555;19;130683;-58
2023/07/31 08:11:38;;;;;;;6.38;2.13;;;;;;;21.70;48.36;100756.06;16123175;19;131356;-58
2023/07/31 08:17:02;;;;;;;6.00;2.20;;;;;;;21.72;48.14;100745.50;16120307;19;130347;-58
2023/07/31 08:22:24;;;;;;;5.07;2.22;;;;;;;21.72;48.13;100739.94;16117334;19;129404;-58
2023/07/31 08:27:46;;;;;;;5.68;2.45;;;;;;;21.74;48.27;100748.88;16117166;19;129817;-60
2023/07/31 08:33:09;;;;;;;10.23;2.50;;;;;;;21.76;48.00;100745.81;16114478;19;129823;-58
2023/07/31 08:38:31;;;;;;;5.85;2.35;;;;;;;21.76;47.85;100749.44;16113135;19;130434;-58
2023/07/31 08:43:55;;;;;;;6.60;2.35;;;;;;;21.77;48.14;100745.53;16112973;19;129534;-60
2023/07/31 08:49:20;;;;;;;7.60;2.40;;;;;;;21.79;47.83;100743.31;16119775;19;129958;-58
2023/07/31 08:54:42;;;;;;;5.57;2.35;;;;;;;21.82;48.23;100744.72;16116288;19;130566;-58
2023/07/31 09:00:09;;;;;;;5.68;2.00;;;;;;;21.84;47.75;100731.38;16118368;19;130235;-58
2023/07/31 09:05:32;;;;;;;9.32;2.40;;;;;;;21.86;48.11;100733.88;16118628;19;129943;-58
2023/07/31 09:10:55;;;;;;;3.90;2.10;;;;;;;21.85;47.79;100737.75;16116700;19;130208;-58
2023/07/31 09:16:17;;;;;;;3.95;2.05;;;;;;;21.86;47.85;100734.69;16116373;19;129475;-58
2023/07/31 09:21:48;;;;;;;5.10;2.00;;;;;;;21.88;47.86;100732.47;16113865;19;129625;-58
2023/07/31 09:27:10;;;;;;;3.30;1.83;;;;;;;21.89;47.95;100727.75;16114990;19;130668;-58
2023/07/31 09:32:32;;;;;;;4.15;2.13;;;;;;;21.90;47.84;100715.50;16115846;19;130488;-57
2023/07/31 09:38:03;;;;;;;5.85;2.15;;;;;;;21.94;47.92;100709.13;16113766;19;130123;-58
2023/07/31 09:43:27;;;;;;;4.22;2.05;;;;;;;21.93;48.00;100706.59;16115971;19;129909;-58
2023/07/31 09:48:49;;;;;;;4.40;2.00;;;;;;;21.95;47.74;100704.38;16113371;19;130724;-58
2023/07/31 09:54:12;;;;;;;2.30;1.63;;;;;;;21.96;47.89;100701.34;16118934;19;129472;-57
2023/07/31 09:59:35;;;;;;;5.10;2.20;;;;;;;21.99;47.75;100691.56;16133234;19;131039;-58
2023/07/31 10:05:02;;;;;;;7.85;2.45;;;;;;;22.00;47.83;100690.47;16127083;19;130574;-58
2023/07/31 10:10:25;;;;;;;5.97;2.40;;;;;;;22.02;48.05;100692.97;16118361;19;130926;-60
2023/07/31 10:15:48;;;;;;;6.47;2.25;;;;;;;22.01;47.74;100699.66;16122017;19;130980;-61
2023/07/31 10:21:11;;;;;;;4.97;1.80;;;;;;;22.00;47.93;100707.19;16118532;19;130489;-61
2023/07/31 10:26:34;;;;;;;4.40;1.98;;;;;;;22.04;47.97;100696.31;16127833;19;129791;-62
2023/07/31 10:31:59;;;;;;;5.75;2.35;;;;;;;22.02;48.00;100691.03;16129566;19;129478;-62
2023/07/31 10:37:25;;;;;;;4.17;2.30;;;;;;;22.02;48.25;100709.69;16127260;19;129365;-62
2023/07/31 10:42:49;;;;;;;4.55;2.58;;;;;;;22.00;48.25;100712.75;16126786;19;129434;-62
2023/07/31 10:48:17;;;;;;;7.88;2.70;;;;;;;22.01;48.10;100708.84;16123583;19;129556;-62
2023/07/31 10:53:40;;;;;;;8.25;2.70;;;;;;;22.00;48.14;100707.19;16130282;19;129927;-62
2023/07/31 10:59:02;;;;;;;4.32;2.05;;;;;;;22.00;48.30;100711.91;16126705;19;130695;-62
2023/07/31 11:04:26;;;;;;;6.13;2.33;;;;;;;21.98;48.17;100698.25;16125012;19;130718;-61
2023/07/31 11:09:49;;;;;;;5.40;2.63;;;;;;;21.96;48.68;100692.13;16125712;19;129431;-62
2023/07/31 11:15:11;;;;;;;5.43;2.40;;;;;;;21.96;48.28;100689.34;16129166;19;130830;-61
2023/07/31 11:20:35;;;;;;;4.57;2.40;;;;;;;21.98;48.41;100676.78;16144405;19;129443;-62
2023/07/31 11:25:59;;;;;;;4.65;2.38;;;;;;;22.03;48.32;100673.19;16209728;19;128754;-61
2023/07/31 11:31:21;;;;;;;7.83;2.27;;;;;;;22.05;48.58;100657.03;16211280;19;128953;-62
2023/07/31 11:36:54;;;;;;;4.00;2.40;;;;;;;22.07;48.67;100663.16;16211722;19;129547;-61
2023/07/31 11:42:16;;;;;;;5.53;2.50;;;;;;;22.05;48.55;100659.81;16211613;19;129146;-61
2023/07/31 11:47:38;;;;;;;4.95;2.50;;;;;;;22.05;48.46;100651.47;16208725;19;130415;-62
2023/07/31 11:53:07;;;;;;;5.60;2.63;;;;;;;22.04;48.45;100649.78;16192543;19;129572;-61
2023/07/31 11:58:30;;;;;;;4.03;2.13;;;;;;;22.03;48.51;100653.69;16190282;19;128947;-62
2023/07/31 12:03:52;;;;;;;5.03;2.20;;;;;;;22.03;48.67;100642.53;16144656;19;130120;-62
2023/07/31 12:09:15;;;;;;;5.70;2.20;;;;;;;22.02;48.51;100635.31;16144577;19;131554;-61
2023/07/31 12:14:42;;;;;;;4.47;2.50;;;;;;;22.06;48.86;100605.78;16137420;19;131007;-61
2023/07/31 12:20:04;;;;;;;3.55;2.53;;;;;;;22.03;48.73;100602.72;16134938;19;131337;-61
2023/07/31 12:25:31;;;;;;;4.50;2.50;;;;;;;22.04;48.76;100608.00;16137731;19;131829;-62
2023/07/31 12:31:00;;;;;;;4.45;2.65;;;;;;;22.04;48.64;100585.72;16146156;19;130234;-61
2023/07/31 12:36:23;;;;;;;4.68;2.40;;;;;;;22.05;48.57;100606.88;16134939;19;129977;-62
2023/07/31 12:41:45;;;;;;;5.43;2.53;;;;;;;22.05;48.36;100603.28;16119490;19;129763;-62
2023/07/31 12:47:07;;;;;;;4.00;2.08;;;;;;;22.03;48.53;100575.69;16120026;19;130418;-61
2023/07/31 12:52:29;;;;;;;5.22;2.58;;;;;;;22.03;48.45;100578.47;16120955;19;130919;-61
2023/07/31 12:57:51;;;;;;;5.22;2.50;;;;;;;22.03;48.72;100586.00;16124419;19;130089;-60
2023/07/31 13:03:15;;;;;;;3.63;2.50;;;;;;;22.00;49.04;100576.28;16125828;19;129662;-61
2023/07/31 13:08:37;;;;;;;6.28;2.30;;;;;;;21.99;48.48;100577.38;16127213;19;129600;-62
2023/07/31 13:14:00;;;;;;;4.97;2.78;;;;;;;21.98;48.98;100584.88;16114293;19;130962;-62
2023/07/31 13:19:22;;;;;;;4.82;2.80;;;;;;;21.97;48.75;100590.75;16117217;19;129884;-61
2023/07/31 13:24:44;;;;;;;7.05;2.60;;;;;;;21.96;48.82;100583.50;16112363;19;129755;-61
2023/07/31 13:30:07;;;;;;;5.78;2.65;;;;;;;21.94;48.77;100572.66;16111338;19;129511;-61
2023/07/31 13:35:31;;;;;;;4.38;2.30;;;;;;;21.92;49.12;100569.28;16104656;19;130650;-61
2023/07/31 13:40:54;;;;;;;;;;;;;;;21.89;49.07;100566.25;16105876;19;132886;-62
2023/07/31 13:46:16;;;;;;;3.90;2.38;;;;;;;21.90;48.66;100570.69;16111884;19;129864;-55
2023/07/31 13:51:39;;;;;;;5.85;2.95;;;;;;;21.90;49.24;100559.56;16111923;19;130525;-57
2023/07/31 13:57:01;;;;;;;8.35;3.22;;;;;;;21.90;48.82;100563.16;16107499;19;129149;-53
2023/07/31 14:02:23;;;;;;;5.10;2.90;;;;;;;21.93;49.07;100567.34;16116644;19;130395;-58
2023/07/31 14:07:45;;;;;;;8.10;3.10;;;;;;;21.95;48.91;100559.53;16111201;19;130158;-56
2023/07/31 14:13:07;;;;;;;6.10;2.80;;;;;;;21.96;49.05;100564.00;16110626;19;129256;-58
2023/07/31 14:18:29;;;;;;;7.05;2.58;;;;;;;21.98;49.08;100559.00;16108801;19;129854;-55
2023/07/31 14:23:51;;;;;;;5.40;2.80;;;;;;;22.01;48.95;100547.31;16107758;19;129675;-53
2023/07/31 14:29:13;;;;;;;7.45;2.35;;;;;;;22.03;49.29;100549.78;16108204;19;129694;-56
2023/07/31 14:34:35;;;;;;;7.93;2.50;;;;;;;22.04;49.14;100537.53;16111538;19;131237;-51
2023/07/31 14:39:57;;;;;;;7.70;2.95;;;;;;;22.06;48.79;100530.56;16113463;19;129646;-54
2023/07/31 14:45:19;;;;;;;4.72;2.63;;;;;;;22.06;48.99;100522.22;16125430;19;130249;-53
2023/07/31 14:50:41;;;;;;;3.90;2.50;;;;;;;22.09;48.96;100520.84;16122404;19;129631;-50
2023/07/31 14:56:03;;;;;;;4.45;2.20;;;;;;;22.08;48.75;100519.16;16123885;19;129720;-49
2023/07/31 15:01:25;;;;;;;4.78;2.15;;;;;;;22.08;49.17;100508.03;16118960;19;130253;-52
2023/07/31 15:06:47;;;;;;;3.55;2.13;;;;;;;22.09;49.11;100495.78;16121389;19;130200;-48
2023/07/31 15:12:09;;;;;;;5.45;2.35;;;;;;;22.08;49.03;100485.75;16121856;19;129657;-49
2023/07/31 15:17:31;;;;;;;5.03;2.15;;;;;;;22.09;49.23;100465.13;16120112;19;129437;-54
2023/07/31 15:22:54;;;;;;;4.57;1.95;;;;;;;22.07;49.05;100459.00;16118901;19;131071;-55
2023/07/31 15:28:17;;;;;;;3.55;1.92;;;;;;;22.05;49.09;100450.91;16114867;19;130387;-53
2023/07/31 15:33:39;;;;;;;5.25;2.05;;;;;;;22.04;49.36;100437.25;16109359;19;130806;-54
2023/07/31 15:39:02;;;;;;;4.05;2.10;;;;;;;22.02;49.45;100432.00;16113735;19;131338;-53
2023/07/31 15:44:23;;;;;;;3.88;1.67;;;;;;;22.01;49.83;100424.75;16113923;19;130849;-53
2023/07/31 15:49:45;;;;;;;6.78;1.95;;;;;;;22.01;49.78;100407.19;16118205;19;131078;-55
2023/07/31 15:55:07;;;;;;;5.28;2.00;;;;;;;22.00;49.84;100411.94;16114771;19;129612;-52
2023/07/31 16:00:29;;;;;;;7.57;2.30;;;;;;;21.98;49.27;100391.88;16116009;19;129996;-54
2023/07/31 16:05:51;;;;;;;7.55;2.03;;;;;;;21.97;49.68;100390.22;16112413;19;131196;-54
2023/07/31 16:11:13;;;;;;;8.93;2.40;;;;;;;21.97;49.69;100384.63;16115347;19;131891;-54
2023/07/31 16:16:35;;;;;;;6.72;2.40;;;;;;;21.95;49.55;100376.56;16117337;19;130058;-55
2023/07/31 16:21:57;;;;;;;7.97;2.10;;;;;;;21.95;49.88;100370.16;16114740;19;130187;-56
2023/07/31 16:27:23;;;;;;;5.13;2.03;;;;;;;21.93;50.00;100361.25;16114675;19;130407;-55
2023/07/31 16:32:46;;;;;;;9.00;2.50;;;;;;;21.95;50.25;100353.44;16112618;19;129884;-53
2023/07/31 16:38:09;;;;;;;11.52;1.90;;;;;;;21.97;50.59;100348.44;16109992;19;130039;-53
2023/07/31 16:43:31;;;;;;;11.80;2.20;;;;;;;22.01;50.72;100341.19;16115826;19;129437;-55
2023/07/31 16:48:54;;;;;;;7.43;2.20;;;;;;;22.03;50.56;100333.34;16113855;19;130993;-49
2023/07/31 16:54:16;;;;;;;11.32;1.90;;;;;;;22.05;50.79;100317.19;16111523;19;132973;-50
2023/07/31 16:59:38;;;;;;;7.70;1.70;;;;;;;22.06;50.46;100309.69;16116141;19;129608;-49
2023/07/31 17:05:00;;;;;;;5.30;1.63;;;;;;;22.06;50.73;100307.72;16110331;19;131009;-50
2023/07/31 17:10:22;;;;;;;8.98;2.00;;;;;;;22.06;50.68;100298.56;16104185;19;130392;-53
2023/07/31 17:15:44;;;;;;;16.67;1.70;;;;;;;22.05;50.89;100288.53;16105380;19;132009;-54
2023/07/31 17:21:06;;;;;;;10.00;1.80;;;;;;;22.05;50.78;100271.81;16109976;19;129080;-50
2023/07/31 17:26:28;;;;;;;17.02;1.98;;;;;;;22.04;50.67;100279.31;16111105;19;130274;-52
2023/07/31 17:31:50;;;;;;;25.73;2.75;;;;;;;22.03;50.70;100277.66;16113896;19;129813;-53
2023/07/31 17:37:12;;;;;;;11.55;2.00;;;;;;;22.03;50.87;100272.09;16106933;19;130534;-51
2023/07/31 17:42:34;;;;;;;5.30;1.58;;;;;;;22.04;50.80;100272.94;16113964;19;129804;-48
2023/07/31 17:47:56;;;;;;;8.68;1.60;;;;;;;22.05;51.17;100266.25;16109291;19;129436;-48
2023/07/31 17:53:19;;;;;;;7.13;1.55;;;;;;;22.05;51.17;100281.00;16111725;19;130750;-54
2023/07/31 17:58:41;;;;;;;3.67;1.17;;;;;;;22.05;51.07;100203.00;16106123;19;129827;-52
2023/07/31 18:04:04;;;;;;;7.47;1.02;;;;;;;22.06;50.64;100199.09;16106317;19;129618;-47
2023/07/31 18:09:26;;;;;;;6.00;1.27;;;;;;;22.07;51.28;100189.63;16101965;19;130137;-55
2023/07/31 18:14:48;;;;;;;8.30;1.38;;;;;;;22.11;51.39;100209.38;16111528;19;130129;-50
2023/07/31 18:20:11;;;;;;;7.47;1.23;;;;;;;22.12;51.35;100192.38;16123151;19;129816;-56
2023/07/31 18:25:33;;;;;;;18.80;1.90;;;;;;;22.15;51.49;100201.28;16123576;19;129605;-48
2023/07/31 18:30:58;;;;;;;10.38;1.52;;;;;;;22.17;51.64;100221.31;16123798;19;130915;-53
2023/07/31 18:36:21;;;;;;;9.75;1.25;;;;;;;22.18;51.79;100189.56;16123619;19;131601;-51
2023/07/31 18:41:43;;;;;;;10.70;1.20;;;;;;;22.18;51.41;100189.56;16122580;19;130193;-52
2023/07/31 18:47:05;;;;;;;6.30;1.20;;;;;;;22.17;51.36;100185.94;16122535;19;129326;-53
2023/07/31 18:52:27;;;;;;;11.07;1.45;;;;;;;22.19;51.32;100185.66;16121440;19;129520;-57
2023/07/31 18:57:49;;;;;;;7.22;1.00;;;;;;;22.19;51.54;100180.91;16122663;19;129850;-53
2023/07/31 19:03:11;;;;;;;10.13;1.20;;;;;;;22.18;51.04;100165.31;16122827;19;130191;-52
2023/07/31 19:08:34;;;;;;;4.68;1.10;;;;;;;22.18;50.92;100178.41;16123233;19;134160;-51
2023/07/31 19:13:56;;;;;;;7.88;1.15;;;;;;;22.17;51.60;100183.16;16114617;19;130149;-54
2023/07/31 19:19:18;;;;;;;6.18;1.10;;;;;;;22.16;51.35;100172.28;16118283;19;130258;-48
2023/07/31 19:24:40;;;;;;;6.47;1.15;;;;;;;22.15;51.54;100168.69;16111281;19;131587;-51
2023/07/31 19:30:06;;;;;;;9.07;1.20;;;;;;;22.15;51.37;100179.81;16114481;19;129800;-51
2023/07/31 19:35:28;;;;;;;3.75;1.00;;;;;;;22.13;51.59;100155.06;16118120;19;130226;-48
2023/07/31 19:40:49;;;;;;;4.53;0.90;;;;;;;22.13;51.34;100160.63;16120454;19;129606;-52
2023/07/31 19:46:12;;;;;;;3.25;1.20;;;;;;;22.13;51.37;100166.19;16118563;19;130048;-51
2023/07/31 19:51:33;;;;;;;7.70;0.90;;;;;;;22.15;51.15;100159.50;16117587;19;134775;-54
2023/07/31 19:56:57;;;;;;;3.47;1.10;;;;;;;22.13;51.58;100141.13;16114626;19;130295;-54
2023/07/31 20:02:19;;;;;;;6.13;1.17;;;;;;;22.12;51.19;100147.81;16117534;19;131223;-52
2023/07/31 20:07:41;;;;;;;15.90;1.20;;;;;;;22.11;51.47;100135.00;16120756;19;129444;-54
2023/07/31 20:13:03;;;;;;;10.55;1.15;;;;;;;22.12;51.38;100135.81;16120380;19;130923;-51
2023/07/31 20:18:25;;;;;;;8.48;1.33;;;;;;;22.11;51.47;100145.31;16119886;19;129896;-55
2023/07/31 20:23:47;;;;;;;11.32;1.20;;;;;;;22.11;51.24;100120.22;16119045;19;130147;-51
2023/07/31 20:29:09;;;;;;;6.93;1.05;;;;;;;22.10;51.57;100116.63;16118773;19;129265;-56
2023/07/31 20:34:31;;;;;;;5.57;1.00;;;;;;;22.10;51.32;100094.34;16117905;19;130785;-52
2023/07/31 20:39:57;;;;;;;5.20;0.93;;;;;;;22.12;51.59;100094.88;16116348;19;130624;-51
2023/07/31 20:45:19;;;;;;;3.65;1.10;;;;;;;22.11;51.10;100081.22;16116900;19;131110;-50
2023/07/31 20:50:42;;;;;;;10.75;0.90;;;;;;;22.10;51.14;100077.63;16116411;19;131806;-53
2023/07/31 20:56:04;;;;;;;13.32;1.40;;;;;;;22.11;51.28;100064.53;16116811;19;129641;-55
2023/07/31 21:01:26;;;;;;;8.00;1.00;;;;;;;22.11;51.09;100057.00;16109891;19;130840;-51
2023/07/31 21:06:49;;;;;;;11.98;1.52;;;;;;;22.11;51.24;100045.88;16110078;19;130127;-53
2023/07/31 21:12:11;;;;;;;7.10;1.02;;;;;;;22.08;51.20;100032.53;16104641;19;130340;-50
2023/07/31 21:17:33;;;;;;;12.65;1.10;;;;;;;22.07;50.87;100028.06;16101649;19;129593;-51
2023/07/31 21:22:55;;;;;;;5.25;1.20;;;;;;;22.05;50.84;100019.16;16110281;19;130398;-53
2023/07/31 21:28:17;;;;;;;4.72;1.00;;;;;;;22.04;51.24;100016.69;16101604;19;131199;-51
2023/07/31 21:33:40;;;;;;;12.40;1.67;;;;;;;22.03;51.45;100015.84;16107165;19;129449;-48
2023/07/31 21:39:02;;;;;;;7.95;0.90;;;;;;;22.01;50.79;100001.41;16100007;19;130793;-51
2023/07/31 21:44:24;;;;;;;8.77;0.95;;;;;;;22.01;51.20;99994.97;16102039;19;130126;-54
2023/07/31 21:49:46;;;;;;;9.00;1.48;;;;;;;21.99;51.20;99989.72;16104510;19;129464;-53
2023/07/31 21:55:08;;;;;;;8.90;1.13;;;;;;;21.96;50.78;99982.78;16101995;19;130665;-54
2023/07/31 22:00:30;;;;;;;7.13;1.27;;;;;;;21.95;51.04;99980.28;16106836;19;129778;-52
2023/07/31 22:05:52;;;;;;;5.32;0.98;;;;;;;21.94;51.05;99950.75;15953388;19;2971258;-51
2023/07/31 22:11:15;;;;;;;6.30;0.80;;;;;;;21.92;50.93;99936.28;16103725;19;129155;-52
2023/07/31 22:16:37;;;;;;;7.75;1.20;;;;;;;21.91;50.85;99945.81;16104709;19;129772;-52
2023/07/31 22:22:00;;;;;;;7.30;1.02;;;;;;;21.89;50.99;99942.47;16104482;19;130249;-53
2023/07/31 22:27:22;;;;;;;3.00;0.93;;;;;;;21.88;51.10;99949.16;16102542;19;130066;-51
2023/07/31 22:32:44;;;;;;;3.25;0.93;;;;;;;21.87;50.80;99928.00;16104034;19;129777;-53
2023/07/31 22:38:06;;;;;;;3.90;1.05;;;;;;;21.87;50.89;99936.38;16101487;19;130334;-54
2023/07/31 22:43:28;;;;;;;3.67;0.80;;;;;;;21.86;51.22;99929.13;16105541;19;129402;-55
2023/07/31 22:48:52;;;;;;;4.50;0.70;;;;;;;21.84;51.15;99923.88;16105523;19;129906;-53
2023/07/31 22:54:14;;;;;;;3.15;0.90;;;;;;;21.83;50.84;99925.00;16104109;19;131520;-50
2023/07/31 22:59:36;;;;;;;2.28;0.70;;;;;;;21.81;50.81;99914.13;16105524;19;129536;-54
2023/07/31 23:04:58;;;;;;;2.75;0.80;;;;;;;21.80;50.88;99914.44;16120185;19;130620;-52
2023/07/31 23:10:20;;;;;;;3.28;0.60;;;;;;;21.79;51.03;99908.00;16120385;19;130376;-52
2023/07/31 23:15:45;;;;;;;1.90;0.70;;;;;;;21.79;50.76;99918.34;16118519;19;131106;-53
2023/07/31 23:21:07;;;;;;;2.25;0.88;;;;;;;21.78;50.96;99913.88;16119763;19;130534;-53
2023/07/31 23:26:29;;;;;;;2.42;0.80;;;;;;;21.77;50.80;99904.72;16117063;19;131112;-52
2023/07/31 23:31:51;;;;;;;2.40;0.68;;;;;;;21.76;50.99;99900.28;16121230;19;129873;-53
2023/07/31 23:37:13;;;;;;;0.88;0.60;;;;;;;21.75;50.87;99893.03;16111683;19;129963;-54
2023/07/31 23:42:35;;;;;;;0.88;0.45;;;;;;;21.75;50.73;99897.75;16116409;19;130073;-53
2023/07/31 23:47:57;;;;;;;1.13;0.60;;;;;;;21.73;50.74;99895.28;16111383;19;130293;-52
2023/07/31 23:53:19;;;;;;;1.55;0.70;;;;;;;21.72;50.67;99896.41;16112420;19;129990;-53
2023/07/31 23:58:42;;;;;;;1.52;0.43;;;;;;;21.71;50.67;99900.31;16112938;19;129809;-51
